createdAt,value
2018-08-09T00:00:16.911Z,74.30
2018-08-09T00:02:46.299Z,74.83
2018-08-09T00:05:15.694Z,75.14
2018-08-09T00:07:45.089Z,75.64
2018-08-09T00:10:14.505Z,77.22
2018-08-09T00:12:43.951Z,76.04
2018-08-09T00:15:13.356Z,76.37
2018-08-09T00:17:43.223Z,77.24
2018-08-09T00:20:13.029Z,76.79
2018-08-09T00:22:42.430Z,75.79
2018-08-09T00:25:11.835Z,76.00
2018-08-09T00:27:41.235Z,75.56
2018-08-09T00:30:10.650Z,75.69
2018-08-09T00:32:40.031Z,76.69
2018-08-09T00:35:09.419Z,76.82
2018-08-09T00:37:38.791Z,76.15
2018-08-09T00:40:09.069Z,76.97
2018-08-09T00:42:38.483Z,77.10
2018-08-09T00:45:08.012Z,76.24
2018-08-09T00:47:37.384Z,76.27
2018-08-09T00:50:06.823Z,75.33
2018-08-09T00:52:36.190Z,75.39
2018-08-09T00:55:05.879Z,76.57
2018-08-09T00:57:35.282Z,76.04
2018-08-09T01:00:05.465Z,75.21
2018-08-09T01:02:34.900Z,75.52
2018-08-09T01:05:04.331Z,75.81
2018-08-09T01:07:33.789Z,77.23
2018-08-09T01:10:03.180Z,77.33
2018-08-09T01:12:32.568Z,77.82
2018-08-09T01:15:01.967Z,76.98
2018-08-09T01:17:31.360Z,77.55
2018-08-09T01:20:00.806Z,78.32
2018-08-09T01:22:30.190Z,77.69
2018-08-09T01:24:59.566Z,78.30
2018-08-09T01:27:28.978Z,78.62
2018-08-09T01:29:58.376Z,78.75
2018-08-09T01:32:27.810Z,78.85
2018-08-09T01:34:57.199Z,79.09
2018-08-09T01:37:26.584Z,79.80
2018-08-09T01:39:55.963Z,80.17
2018-08-09T01:42:42.507Z,78.40
2018-08-09T01:45:11.927Z,77.63
2018-08-09T01:47:41.294Z,77.60
2018-08-09T01:50:10.695Z,76.86
2018-08-09T01:52:40.083Z,76.69
2018-08-09T01:55:09.484Z,77.21
2018-08-09T01:57:38.883Z,77.13
2018-08-09T02:00:08.965Z,77.22
2018-08-09T02:02:38.582Z,77.54
2018-08-09T02:05:09.175Z,75.57
2018-08-09T02:07:38.494Z,74.37
2018-08-09T02:10:09.124Z,74.61
2018-08-09T02:12:38.505Z,73.86
2018-08-09T02:15:07.915Z,74.30
2018-08-09T02:17:37.287Z,75.42
2018-08-09T02:20:06.732Z,75.68
2018-08-09T02:22:36.141Z,75.41
2018-08-09T02:25:05.711Z,75.98
2018-08-09T02:27:35.115Z,76.91
2018-08-09T02:30:05.727Z,77.27
2018-08-09T02:32:35.143Z,77.40
2018-08-09T02:35:04.767Z,77.97
2018-08-09T02:37:34.151Z,78.23
2018-08-09T02:40:03.624Z,78.11
2018-08-09T02:42:32.990Z,78.32
2018-08-09T02:45:02.400Z,78.20
2018-08-09T02:47:31.784Z,78.96
2018-08-09T02:50:01.213Z,79.01
2018-08-09T02:52:30.617Z,79.87
2018-08-09T02:54:59.973Z,79.70
2018-08-09T02:57:29.350Z,78.50
2018-08-09T02:59:58.706Z,77.87
2018-08-09T03:02:28.090Z,77.85
2018-08-09T03:04:57.442Z,78.99
2018-08-09T03:07:26.802Z,80.24
2018-08-09T03:09:56.152Z,80.19
2018-08-09T03:12:25.505Z,78.94
2018-08-09T03:14:54.848Z,78.77
2018-08-09T03:17:24.246Z,78.71
2018-08-09T03:19:53.584Z,78.03
2018-08-09T03:22:22.946Z,79.21
2018-08-09T03:24:52.299Z,77.91
2018-08-09T03:27:21.651Z,76.32
2018-08-09T03:29:50.995Z,75.79
2018-08-09T03:32:20.361Z,76.51
2018-08-09T03:34:49.703Z,77.43
2018-08-09T03:37:19.063Z,78.03
2018-08-09T03:39:48.416Z,78.67
2018-08-09T03:42:17.776Z,79.37
2018-08-09T03:44:47.123Z,78.81
2018-08-09T03:47:16.472Z,79.66
2018-08-09T03:49:45.844Z,76.98
2018-08-09T03:52:15.213Z,77.33
2018-08-09T03:54:44.546Z,78.03
2018-08-09T03:57:13.904Z,77.97
2018-08-09T03:59:43.266Z,78.72
2018-08-09T04:02:12.639Z,78.52
2018-08-09T04:04:41.984Z,79.17
2018-08-09T04:07:11.343Z,78.48
2018-08-09T04:09:40.692Z,79.29
2018-08-09T04:12:10.153Z,79.58
2018-08-09T04:14:39.417Z,79.29
2018-08-09T04:17:17.864Z,79.37
2018-08-09T04:19:47.907Z,78.97
2018-08-09T04:22:17.267Z,79.11
2018-08-09T04:24:47.201Z,79.89
2018-08-09T04:27:16.623Z,79.15
2018-08-09T04:29:46.081Z,79.12
2018-08-09T04:32:15.445Z,79.03
2018-08-09T04:34:44.784Z,80.26
2018-08-09T04:37:14.151Z,80.75
2018-08-09T04:39:43.503Z,80.29
2018-08-09T04:42:12.861Z,81.46
2018-08-09T04:44:42.216Z,80.39
2018-08-09T04:47:11.564Z,79.39
2018-08-09T04:49:40.928Z,79.82
2018-08-09T04:52:10.270Z,80.09
2018-08-09T04:54:39.630Z,79.57
2018-08-09T04:57:08.979Z,80.08
2018-08-09T04:59:38.351Z,80.97
2018-08-09T05:02:08.742Z,81.16
2018-08-09T05:04:38.121Z,81.58
2018-08-09T05:07:07.494Z,81.38
2018-08-09T05:09:36.848Z,80.95
2018-08-09T05:12:06.241Z,80.75
2018-08-09T05:14:35.589Z,79.31
2018-08-09T05:17:04.953Z,77.83
2018-08-09T05:19:34.312Z,77.77
2018-08-09T05:22:03.676Z,78.11
2018-08-09T05:24:33.031Z,78.72
2018-08-09T05:27:02.404Z,78.14
2018-08-09T05:29:31.765Z,76.75
2018-08-09T05:32:01.112Z,77.99
2018-08-09T05:34:30.480Z,77.08
2018-08-09T05:36:59.835Z,76.66
2018-08-09T05:39:29.203Z,76.95
2018-08-09T05:41:58.552Z,76.33
2018-08-09T05:44:27.905Z,76.10
2018-08-09T05:46:57.249Z,76.78
2018-08-09T05:49:26.594Z,77.16
2018-08-09T05:51:55.943Z,76.06
2018-08-09T05:54:25.323Z,76.21
2018-08-09T05:56:54.649Z,78.25
2018-08-09T05:59:24.191Z,76.96
2018-08-09T06:01:53.535Z,76.99
2018-08-09T06:04:22.884Z,76.24
2018-08-09T06:06:52.240Z,75.96
2018-08-09T06:09:21.596Z,75.82
2018-08-09T06:11:50.944Z,76.13
2018-08-09T06:14:20.296Z,75.76
2018-08-09T06:16:49.638Z,76.14
2018-08-09T06:19:18.985Z,75.19
2018-08-09T06:21:48.332Z,75.71
2018-08-09T06:24:17.792Z,74.92
2018-08-09T06:26:47.189Z,74.47
2018-08-09T06:29:16.558Z,73.43
2018-08-09T06:31:45.907Z,73.33
2018-08-09T06:34:15.293Z,73.71
2018-08-09T06:36:44.678Z,72.04
2018-08-09T06:39:14.060Z,72.34
2018-08-09T06:41:43.417Z,73.00
2018-08-09T06:44:12.788Z,72.06
2018-08-09T06:46:42.153Z,71.91
2018-08-09T06:49:11.513Z,72.02
2018-08-09T06:51:40.876Z,71.58
2018-08-09T06:54:10.233Z,70.79
2018-08-09T06:56:39.595Z,70.90
2018-08-09T06:59:09.068Z,72.32
2018-08-09T07:01:38.433Z,72.47
2018-08-09T07:04:08.768Z,72.25
2018-08-09T07:06:38.133Z,70.87
2018-08-09T07:09:10.232Z,70.39
2018-08-09T07:11:39.602Z,69.93
2018-08-09T07:14:08.950Z,68.58
2018-08-09T07:16:38.318Z,67.19
2018-08-09T07:19:07.664Z,67.28
2018-08-09T07:21:37.008Z,64.75
2018-08-09T07:24:06.374Z,63.12
2018-08-09T07:26:35.731Z,61.80
2018-08-09T07:29:05.095Z,61.17
2018-08-09T07:31:34.460Z,60.25
2018-08-09T07:34:03.820Z,60.58
2018-08-09T07:36:33.211Z,60.37
2018-08-09T07:39:02.532Z,60.25
2018-08-09T07:41:31.881Z,59.65
2018-08-09T07:44:01.237Z,59.07
2018-08-09T07:46:30.616Z,57.86
2018-08-09T07:49:00.134Z,58.35
2018-08-09T07:51:29.489Z,58.35
2018-08-09T07:53:58.848Z,56.55
2018-08-09T07:56:28.200Z,56.96
2018-08-09T07:58:57.535Z,56.08
2018-08-09T08:01:26.890Z,54.64
2018-08-09T08:03:56.240Z,54.17
2018-08-09T08:06:25.625Z,53.40
2018-08-09T08:08:54.978Z,53.56
2018-08-09T08:11:24.333Z,52.53
2018-08-09T08:13:53.678Z,52.16
2018-08-09T08:16:23.044Z,51.82
2018-08-09T08:18:52.380Z,51.79
2018-08-09T08:21:21.739Z,51.49
2018-08-09T08:23:51.080Z,50.95
2018-08-09T08:26:20.431Z,50.96
2018-08-09T08:28:49.797Z,50.82
2018-08-09T08:31:19.160Z,51.00
2018-08-09T08:33:48.504Z,50.57
2018-08-09T08:36:17.853Z,50.38
2018-08-09T08:38:47.224Z,49.83
2018-08-09T08:41:16.561Z,49.11
2018-08-09T08:43:45.930Z,50.33
2018-08-09T08:46:15.461Z,49.95
2018-08-09T08:48:44.891Z,48.46
2018-08-09T08:51:14.272Z,49.01
2018-08-09T08:53:43.631Z,48.33
2018-08-09T08:56:12.993Z,48.06
2018-08-09T08:58:42.356Z,47.80
2018-08-09T09:01:11.711Z,48.43
2018-08-09T09:03:41.101Z,47.94
2018-08-09T09:06:10.448Z,47.50
2018-08-09T09:08:39.844Z,47.83
2018-08-09T09:11:09.197Z,47.50
2018-08-09T09:13:38.620Z,47.65
2018-08-09T09:16:09.209Z,47.57
2018-08-09T09:18:38.584Z,47.51
2018-08-09T09:21:07.997Z,47.17
2018-08-09T09:23:37.348Z,47.69
2018-08-09T09:26:06.729Z,47.27
2018-08-09T09:28:36.097Z,46.76
2018-08-09T09:31:05.464Z,46.12
2018-08-09T09:33:34.824Z,46.07
2018-08-09T09:36:04.289Z,46.04
2018-08-09T09:38:33.936Z,45.78
2018-08-09T09:41:03.831Z,44.62
2018-08-09T09:43:33.377Z,44.59
2018-08-09T09:46:02.728Z,43.85
2018-08-09T09:48:32.096Z,43.99
2018-08-09T09:51:01.449Z,44.76
2018-08-09T09:53:30.808Z,44.41
2018-08-09T09:56:00.201Z,45.05
2018-08-09T09:58:29.567Z,44.68
2018-08-09T10:01:04.283Z,44.88
2018-08-09T10:03:33.640Z,42.92
2018-08-09T10:06:02.985Z,42.98
2018-08-09T10:08:32.356Z,43.78
2018-08-09T10:11:01.726Z,42.79
2018-08-09T10:13:31.093Z,43.20
2018-08-09T10:16:00.448Z,42.83
2018-08-09T10:18:29.880Z,42.88
2018-08-09T10:21:05.444Z,41.44
2018-08-09T10:23:34.820Z,41.26
2018-08-09T10:26:04.171Z,41.32
2018-08-09T10:28:33.523Z,40.23
2018-08-09T10:31:02.868Z,40.80
2018-08-09T10:33:32.219Z,41.27
2018-08-09T10:36:01.608Z,40.39
2018-08-09T10:38:30.968Z,40.35
2018-08-09T10:41:00.328Z,39.16
2018-08-09T10:43:29.669Z,40.43
2018-08-09T10:45:59.124Z,40.36
2018-08-09T10:48:28.467Z,39.44
2018-08-09T10:50:57.832Z,39.92
2018-08-09T10:53:27.175Z,38.67
2018-08-09T10:55:56.538Z,39.87
2018-08-09T10:58:25.894Z,39.30
2018-08-09T11:00:55.291Z,38.71
2018-08-09T11:03:24.614Z,39.22
2018-08-09T11:05:53.976Z,38.68
2018-08-09T11:08:23.327Z,38.75
2018-08-09T11:10:52.690Z,38.90
2018-08-09T11:13:22.042Z,38.17
2018-08-09T11:15:51.397Z,37.63
2018-08-09T11:18:20.762Z,37.35
2018-08-09T11:20:50.121Z,37.74
2018-08-09T11:23:19.473Z,34.58
2018-08-09T11:25:48.847Z,34.07
2018-08-09T11:28:18.278Z,34.31
2018-08-09T11:30:47.635Z,34.50
2018-08-09T11:33:16.974Z,33.30
2018-08-09T11:35:46.344Z,33.92
2018-08-09T11:38:15.756Z,34.35
2018-08-09T11:40:45.181Z,34.24
2018-08-09T11:43:14.561Z,35.10
2018-08-09T11:45:44.033Z,34.79
2018-08-09T11:48:13.384Z,34.97
2018-08-09T11:50:42.752Z,34.57
2018-08-09T11:53:12.312Z,34.09
2018-08-09T11:55:41.679Z,33.79
2018-08-09T11:58:11.039Z,33.88
2018-08-09T12:00:40.375Z,33.12
2018-08-09T12:03:09.728Z,33.21
2018-08-09T12:05:39.088Z,32.80
2018-08-09T12:08:08.863Z,32.68
2018-08-09T12:10:53.799Z,31.74
2018-08-09T12:13:23.212Z,32.18
2018-08-09T12:15:52.639Z,31.90
2018-08-09T12:18:22.030Z,32.53
2018-08-09T12:20:51.529Z,33.00
2018-08-09T12:23:20.844Z,32.59
2018-08-09T12:25:50.287Z,32.06
2018-08-09T12:28:19.714Z,32.99
2018-08-09T12:30:49.125Z,33.25
2018-08-09T12:33:18.589Z,32.83
2018-08-09T12:35:47.981Z,33.47
2018-08-09T12:38:17.406Z,32.19
2018-08-09T12:40:46.824Z,30.93
2018-08-09T12:43:16.268Z,30.72
2018-08-09T12:45:45.662Z,30.38
2018-08-09T12:48:15.107Z,28.96
2018-08-09T12:50:44.511Z,28.85
2018-08-09T12:53:13.945Z,28.99
2018-08-09T12:55:43.346Z,29.43
2018-08-09T12:58:12.763Z,29.88
2018-08-09T13:00:42.187Z,30.51
2018-08-09T13:03:11.601Z,29.81
2018-08-09T13:05:41.051Z,29.49
2018-08-09T13:08:10.516Z,29.44
2018-08-09T13:10:39.925Z,28.93
2018-08-09T13:13:09.323Z,28.95
2018-08-09T13:15:38.742Z,28.33
2018-08-09T13:18:09.143Z,27.40
2018-08-09T13:20:38.543Z,27.68
2018-08-09T13:23:07.949Z,27.06
2018-08-09T13:25:37.352Z,27.09
2018-08-09T13:28:07.043Z,25.93
2018-08-09T13:30:36.390Z,25.75
2018-08-09T13:33:05.757Z,24.96
2018-08-09T13:35:35.098Z,25.67
2018-08-09T13:38:04.515Z,23.70
2018-08-09T13:40:33.824Z,22.71
2018-08-09T13:43:03.175Z,22.61
2018-08-09T13:45:32.557Z,21.54
2018-08-09T13:48:01.892Z,22.71
2018-08-09T13:50:31.240Z,23.80
2018-08-09T13:53:00.603Z,24.56
2018-08-09T13:55:29.962Z,23.10
2018-08-09T13:57:59.310Z,23.49
2018-08-09T14:00:28.658Z,23.82
2018-08-09T14:02:58.019Z,24.47
2018-08-09T14:05:27.383Z,24.06
2018-08-09T14:07:56.743Z,23.40
2018-08-09T14:10:26.084Z,22.85
2018-08-09T14:12:55.443Z,23.39
2018-08-09T14:15:24.787Z,24.97
2018-08-09T14:17:54.315Z,26.07
2018-08-09T14:20:23.559Z,26.94
2018-08-09T14:22:52.911Z,26.93
2018-08-09T14:25:22.272Z,31.38
2018-08-09T14:27:51.655Z,37.18
2018-08-09T14:30:21.031Z,39.73
2018-08-09T14:32:50.424Z,41.44
2018-08-09T14:35:19.767Z,42.14
2018-08-09T14:37:49.163Z,43.16
2018-08-09T14:40:18.459Z,45.15
2018-08-09T14:42:47.800Z,45.25
2018-08-09T14:45:17.658Z,45.51
2018-08-09T14:47:47.079Z,46.49
2018-08-09T14:50:16.411Z,45.97
2018-08-09T14:52:45.757Z,47.16
2018-08-09T14:55:15.123Z,47.95
2018-08-09T14:57:44.464Z,48.49
2018-08-09T15:00:17.017Z,49.19
2018-08-09T15:02:46.549Z,49.01
2018-08-09T15:05:16.869Z,48.92
2018-08-09T15:07:46.745Z,49.97
2018-08-09T15:10:17.773Z,49.69
2018-08-09T15:12:47.359Z,48.59
2018-08-09T15:15:16.915Z,49.60
2018-08-09T15:17:46.543Z,49.14
2018-08-09T15:20:16.097Z,49.66
2018-08-09T15:22:45.867Z,49.47
2018-08-09T15:25:15.654Z,50.46
2018-08-09T15:27:45.311Z,51.55
2018-08-09T15:30:17.475Z,52.05
2018-08-09T15:32:47.374Z,49.96
2018-08-09T15:35:17.148Z,49.52
2018-08-09T15:37:46.905Z,49.17
2018-08-09T15:40:16.577Z,49.15
2018-08-09T15:42:46.215Z,49.05
2018-08-09T15:45:16.846Z,49.31
2018-08-09T15:47:46.806Z,51.23
2018-08-09T15:50:18.681Z,52.08
2018-08-09T15:52:48.388Z,52.16
2018-08-09T15:55:18.870Z,51.75
2018-08-09T15:57:48.662Z,51.39
2018-08-09T16:00:20.893Z,51.07
2018-08-09T16:02:50.575Z,51.21
2018-08-09T16:05:20.341Z,51.69
2018-08-09T16:07:49.940Z,51.89
2018-08-09T16:10:19.680Z,52.30
2018-08-09T16:12:49.723Z,53.31
2018-08-09T16:15:20.234Z,52.94
2018-08-09T16:17:50.438Z,53.39
2018-08-09T16:20:20.095Z,53.47
2018-08-09T16:22:49.692Z,53.70
2018-08-09T16:25:20.515Z,52.87
2018-08-09T16:27:51.121Z,52.87
2018-08-09T16:30:23.528Z,53.32
2018-08-09T16:32:53.162Z,52.75
2018-08-09T16:35:22.942Z,52.32
2018-08-09T16:37:52.680Z,53.20
2018-08-09T16:40:24.892Z,52.07
2018-08-09T16:42:54.679Z,51.86
2018-08-09T16:45:25.254Z,50.63
2018-08-09T16:47:55.700Z,50.52
2018-08-09T16:50:26.209Z,51.15
2018-08-09T16:52:56.259Z,50.99
2018-08-09T16:55:26.613Z,51.46
2018-08-09T16:57:56.355Z,51.34
2018-08-09T17:00:26.258Z,52.25
2018-08-09T17:02:56.478Z,52.80
2018-08-09T17:05:27.785Z,52.57
2018-08-09T17:07:57.788Z,52.62
2018-08-09T17:10:27.696Z,52.76
2018-08-09T17:12:57.352Z,52.42
2018-08-09T17:15:28.418Z,51.86
2018-08-09T17:17:59.034Z,51.71
2018-08-09T17:20:31.167Z,51.69
2018-08-09T17:23:02.686Z,51.54
2018-08-09T17:25:32.626Z,51.28
2018-08-09T17:28:02.329Z,51.76
2018-08-09T17:30:31.875Z,51.53
2018-08-09T17:33:01.557Z,52.63
2018-08-09T17:35:31.091Z,52.76
2018-08-09T17:38:00.751Z,52.20
2018-08-09T17:40:33.620Z,52.73
2018-08-09T17:43:04.246Z,53.04
2018-08-09T17:45:35.363Z,54.07
2018-08-09T17:48:05.215Z,53.91
2018-08-09T17:50:34.855Z,54.20
2018-08-09T17:53:05.262Z,54.63
2018-08-09T17:55:35.233Z,54.64
2018-08-09T17:58:05.066Z,54.58
2018-08-09T18:00:35.539Z,54.97
2018-08-09T18:03:05.931Z,55.34
2018-08-09T18:05:36.262Z,55.15
2018-08-09T18:08:06.330Z,55.44
2018-08-09T18:10:36.704Z,55.56
2018-08-09T18:13:06.305Z,55.99
2018-08-09T18:15:36.104Z,56.02
2018-08-09T18:18:05.971Z,55.32
2018-08-09T18:20:37.079Z,55.80
2018-08-09T18:23:07.080Z,55.46
2018-08-09T18:25:36.668Z,55.84
2018-08-09T18:28:06.486Z,56.63
2018-08-09T18:30:36.137Z,57.15
2018-08-09T18:33:05.932Z,56.48
2018-08-09T18:35:35.608Z,56.49
2018-08-09T18:38:05.280Z,56.68
2018-08-09T18:40:34.886Z,56.27
2018-08-09T18:43:04.555Z,56.86
2018-08-09T18:45:34.139Z,57.00
2018-08-09T18:48:03.889Z,57.83
2018-08-09T18:50:33.524Z,57.30
2018-08-09T18:53:03.216Z,57.83
2018-08-09T18:55:32.916Z,57.73
2018-08-09T18:58:02.644Z,57.68
2018-08-09T19:00:32.352Z,57.33
2018-08-09T19:03:02.038Z,57.76
2018-08-09T19:05:31.625Z,57.92
2018-08-09T19:08:01.345Z,57.87
2018-08-09T19:10:31.447Z,58.88
2018-08-09T19:13:01.278Z,58.24
2018-08-09T19:15:30.841Z,58.38
2018-08-09T19:18:00.594Z,59.55
2018-08-09T19:20:32.013Z,59.35
2018-08-09T19:23:01.789Z,61.00
2018-08-09T19:25:31.746Z,60.66
2018-08-09T19:28:01.397Z,60.98
2018-08-09T19:30:31.459Z,63.19
2018-08-09T19:33:00.889Z,66.25
2018-08-09T19:35:30.311Z,64.70
2018-08-09T19:37:59.826Z,66.22
2018-08-09T19:40:30.850Z,65.91
2018-08-09T19:43:00.371Z,65.03
2018-08-09T19:45:29.893Z,65.11
2018-08-09T19:47:59.472Z,64.12
2018-08-09T19:50:28.986Z,64.96
2018-08-09T19:52:58.559Z,64.85
2018-08-09T19:55:28.348Z,64.81
2018-08-09T19:57:57.900Z,64.89
2018-08-09T20:00:29.527Z,64.95
2018-08-09T20:02:59.013Z,65.49
2018-08-09T20:05:28.484Z,66.43
2018-08-09T20:07:58.563Z,0.00
2018-08-09T20:10:28.205Z,66.56
2018-08-09T20:12:57.764Z,66.73
2018-08-09T20:15:27.387Z,67.17
2018-08-09T20:17:56.907Z,67.65
2018-08-09T20:20:27.108Z,66.58
2018-08-09T20:22:56.659Z,66.46
2018-08-09T20:25:26.268Z,66.99
2018-08-09T20:27:55.792Z,65.83
2018-08-09T20:30:25.427Z,65.44
2018-08-09T20:32:55.036Z,65.62
2018-08-09T20:35:25.248Z,66.73
2018-08-09T20:37:54.864Z,66.32
2018-08-09T20:40:24.815Z,67.00
2018-08-09T20:42:54.979Z,66.18
2018-08-09T20:45:25.119Z,66.06
2018-08-09T20:47:54.866Z,65.33
2018-08-09T20:50:26.341Z,65.52
2018-08-09T20:52:55.899Z,65.17
2018-08-09T20:55:25.728Z,65.06
2018-08-09T20:57:56.352Z,64.96
2018-08-09T21:00:30.444Z,64.53
2018-08-09T21:03:00.885Z,63.71
2018-08-09T21:05:33.499Z,63.99
2018-08-09T21:08:03.109Z,64.15
2018-08-09T21:10:32.706Z,64.43
2018-08-09T21:13:02.225Z,64.83
2018-08-09T21:15:31.833Z,64.47
2018-08-09T21:18:01.324Z,64.99
2018-08-09T21:20:31.025Z,64.25
2018-08-09T21:23:00.563Z,65.83
2018-08-09T21:25:30.148Z,66.36
2018-08-09T21:27:59.712Z,66.38
2018-08-09T21:30:29.265Z,66.56
2018-08-09T21:32:58.671Z,66.20
2018-08-09T21:35:28.079Z,66.61
2018-08-09T21:37:57.481Z,67.60
2018-08-09T21:40:26.906Z,67.04
2018-08-09T21:42:56.318Z,66.39
2018-08-09T21:45:25.738Z,67.03
2018-08-09T21:47:55.135Z,67.36
2018-08-09T21:50:24.539Z,67.80
2018-08-09T21:52:53.973Z,68.25
2018-08-09T21:55:23.367Z,68.23
2018-08-09T21:57:52.764Z,68.23
2018-08-09T22:00:53.011Z,68.54
2018-08-09T22:03:25.701Z,69.89
2018-08-09T22:06:00.367Z,68.82
2018-08-09T22:08:34.945Z,68.75
2018-08-09T22:11:09.864Z,68.54
2018-08-09T22:13:44.557Z,69.09
2018-08-09T22:16:19.212Z,68.70
2018-08-09T22:18:53.815Z,68.35
2018-08-09T22:21:28.473Z,68.11
2018-08-09T22:23:57.897Z,68.01
2018-08-09T22:26:27.322Z,67.85
2018-08-09T22:28:56.662Z,68.38
2018-08-09T22:31:26.034Z,68.84
2018-08-09T22:33:55.527Z,69.00
2018-08-09T22:36:24.875Z,69.23
2018-08-09T22:38:54.224Z,69.37
2018-08-09T22:41:23.572Z,69.29
2018-08-09T22:43:52.929Z,69.50
2018-08-09T22:46:22.271Z,69.22
2018-08-09T22:48:51.647Z,69.37
2018-08-09T22:51:20.992Z,69.88
2018-08-09T22:53:50.327Z,69.52
2018-08-09T22:56:19.698Z,69.62
2018-08-09T22:58:49.036Z,69.14
2018-08-09T23:01:18.384Z,69.59
2018-08-09T23:03:47.805Z,70.64
2018-08-09T23:06:17.112Z,70.80
2018-08-09T23:08:46.467Z,70.56
2018-08-09T23:11:15.825Z,70.26
2018-08-09T23:13:45.182Z,70.88
2018-08-09T23:16:14.531Z,70.64
2018-08-09T23:18:43.871Z,70.88
2018-08-09T23:21:13.205Z,70.15
2018-08-09T23:23:42.559Z,69.19
2018-08-09T23:26:11.899Z,67.97
2018-08-09T23:28:41.274Z,67.70
2018-08-09T23:31:10.611Z,67.91
2018-08-09T23:33:39.947Z,67.22
2018-08-09T23:51:12.635Z,66.66
2018-08-09T23:53:41.992Z,67.09
2018-08-09T23:56:11.391Z,67.82
2018-08-09T23:58:40.803Z,67.70
